Meteo Giornale » Osservazioni meteo Turchia » Sanliurfa-Golgen
ore: 08:20 - Osservazioni Meteo Sanliurfa-Golgen
Lat. 37° 27' N Lon. 38° 54' E Alt. 823 metri s.l.m.
27 °C
Sereno
Temp. 24 Ore
22 °C
32 °C
Nord
13 Km/h
Dew point 10 °C
Umidità 34 %
Visibilità 10 Km
Il sole sorge alle ore 05:54
Il sole tramonta alle ore 18:54
| Data e Ora | Cielo e Fenomeni | T °C | DP °C | Um. % | Pres. hPa | Vis. km | Vento km/h | |
|---|---|---|---|---|---|---|---|---|
| Oggi h: 08:20 | Sereno | 27 | 10 | 34 | 1013 | 10 | N 13 | |
| Oggi h: 07:50 | Sereno | 26 | 10 | 36 | 1013 | 10 | N 13 | |
| Oggi h: 07:20 | Sereno | 26 | 10 | 36 | 1013 | 10 | N/NE 13 | |
| Oggi h: 06:50 | Sereno | 24 | 10 | 41 | 1013 | 10 | N/NE 13 | |
| Oggi h: 06:20 | Sereno | 22 | 10 | 46 | 1012 | 10 | N/NE 16.7 | |
| Oggi h: 05:50 | Sereno | 22 | 9 | 43 | 1012 | 10 | N/NE 13 | |
| Oggi h: 05:20 | Sereno | 22 | 9 | 43 | 1012 | 10 | N/NE 13 | |
| Oggi h: 04:50 | Sereno | 22 | 9 | 43 | 1012 | 10 | N/NO 9.3 | |
| Oggi h: 04:20 | Sereno | 22 | 9 | 43 | 1012 | 10 | N 11.1 | |
| Oggi h: 03:50 | Sereno | 24 | 10 | 41 | 1012 | 10 | N 9.3 | |
| Oggi h: 03:20 | Sereno | 24 | 10 | 41 | 1012 | 10 | N 7.4 | |
| Oggi h: 02:50 | Sereno | 24 | 10 | 41 | 1012 | 10 | N 9.3 | |
| Oggi h: 02:20 | Sereno | 24 | 10 | 41 | 1012 | 10 | N/NO 9.3 | |
| Oggi h: 01:50 | Sereno | 25 | 10 | 38 | 1012 | 10 | N/NO 11.1 | |
| Oggi h: 01:20 | Sereno | 23 | 8 | 38 | 1012 | 10 | N/NO 11.1 | |
| Oggi h: 00:50 | Sereno | 26 | 8 | 31 | 1012 | 10 | N 3.7 | |
| Oggi h: 00:20 | Sereno | 25 | 9 | 36 | 1012 | 10 | N 5.5 | |
| Ieri h: 23:50 | Sereno | 26 | 9 | 34 | 1012 | 10 | N 3.7 | |
| Ieri h: 23:20 | Sereno | 25 | 9 | 36 | 1012 | 10 | N 0 | |
| Ieri h: 22:50 | Sereno | 25 | 9 | 36 | 1012 | 10 | N 1.8 | |
| Ieri h: 22:20 | Sereno | 26 | 9 | 34 | 1012 | 10 | N 5.5 | |
| Ieri h: 21:50 | Sereno | 27 | 9 | 32 | 1012 | 10 | N 5.5 | |
| Ieri h: 21:20 | Sereno | 26 | 9 | 34 | 1012 | 10 | N 3.7 | |
| Ieri h: 20:50 | Sereno | 27 | 9 | 32 | 1012 | 10 | S/SE 7.4 | |
| Ieri h: 20:20 | Sereno | 27 | 9 | 32 | 1012 | 10 | S/SE 7.4 | |
| Ieri h: 19:50 | Sereno | 28 | 9 | 30 | 1011 | 10 | N 5.5 | |
| Ieri h: 19:20 | Sereno | 28 | 9 | 30 | 1011 | 10 | S 7.4 | |
| Ieri h: 18:50 | Sereno | 29 | 9 | 28 | 1011 | 10 | S/SE 13 | |
| Ieri h: 18:20 | Sereno | 30 | 8 | 25 | 1011 | 10 | SE 14.8 | |
| Ieri h: 17:50 | Nuvoloso | 30 | 8 | 25 | 1010 | 10 | S/SE 14.8 | |
| Ieri h: 17:20 | Nuvoloso | 30 | 8 | 25 | 1010 | 10 | SE 13 | |
| Ieri h: 16:50 | Nuvoloso | 31 | 9 | 25 | 1010 | 10 | E/SE 11.1 | |
| Ieri h: 16:20 | Nuvoloso | 31 | 9 | 25 | 1010 | 10 | SE 11.1 | |
| Ieri h: 15:50 | Nuvoloso | 32 | 9 | 24 | 1010 | 10 | E/SE 11.1 | |
| Ieri h: 15:20 | Nuvoloso | 31 | 9 | 25 | 1010 | 10 | S/SE 11.1 | |
| Ieri h: 14:50 | Nuvoloso | 31 | 10 | 27 | 1011 | 10 | E 13 | |
| Ieri h: 14:20 | Poco Nuvoloso | 31 | 10 | 27 | 1010 | 10 | S/SO 11.1 | |
| Ieri h: 13:50 | Poco Nuvoloso | 31 | 11 | 29 | 1011 | 10 | N 7.4 | |
| Ieri h: 13:20 | Poco Nuvoloso | 31 | 12 | 31 | 1011 | 10 | SE 16.7 | |
| Ieri h: 12:50 | Poco Nuvoloso | 31 | 12 | 31 | 1011 | 10 | SE 14.8 | |
| Ieri h: 12:20 | Poco Nuvoloso | 30 | 11 | 30 | 1011 | 10 | SE 14.8 | |
| Ieri h: 11:50 | Sereno | 30 | 11 | 30 | 1011 | 10 | E/SE 14.8 | |
| Ieri h: 11:20 | Sereno | 29 | 12 | 35 | 1011 | 10 | E/NE 14.8 | |
| Ieri h: 10:50 | Sereno | 28 | 12 | 37 | 1011 | 10 | E/NE 14.8 | |
| Ieri h: 10:20 | Sereno | 28 | 11 | 34 | 1011 | 10 | NE 16.7 | |
| Ieri h: 09:50 | Sereno | 27 | 11 | 36 | 1011 | 10 | N/NE 16.7 | |
| Ieri h: 09:20 | Sereno | 27 | 10 | 34 | 1010 | 10 | N 18.5 | |
| Ieri h: 08:50 | Sereno | 26 | 10 | 36 | 1010 | 10 | N 22.2 | |



